createdAt,value
2022-11-10T00:01:14.363Z,21.50
2022-11-10T00:04:00.868Z,21.50
2022-11-10T00:06:47.646Z,21.50
2022-11-10T00:09:34.278Z,21.50
2022-11-10T00:12:20.719Z,21.50
2022-11-10T00:15:28.852Z,21.50
2022-11-10T00:18:15.333Z,21.50
2022-11-10T00:21:09.579Z,21.50
2022-11-10T00:23:55.729Z,21.50
2022-11-10T00:26:42.107Z,21.50
2022-11-10T00:29:28.563Z,21.50
2022-11-10T00:32:16.237Z,21.50
2022-11-10T00:35:02.485Z,21.50
2022-11-10T00:37:50.495Z,21.40
2022-11-10T00:40:36.716Z,21.40
2022-11-10T00:43:26.544Z,21.50
2022-11-10T00:46:13.462Z,21.50
2022-11-10T00:49:01.198Z,21.50
2022-11-10T00:51:47.701Z,21.50
2022-11-10T00:54:34.160Z,21.40
2022-11-10T00:57:20.767Z,21.40
2022-11-10T01:00:08.455Z,21.40
2022-11-10T01:02:54.767Z,21.40
2022-11-10T01:05:42.650Z,21.40
2022-11-10T01:08:28.886Z,21.40
2022-11-10T01:11:16.584Z,21.40
2022-11-10T01:14:02.985Z,21.40
2022-11-10T01:16:49.409Z,21.40
2022-11-10T01:19:35.751Z,21.40
2022-11-10T01:22:23.444Z,21.40
2022-11-10T01:25:10.371Z,21.40
2022-11-10T01:27:57.174Z,21.40
2022-11-10T01:30:43.799Z,21.40
2022-11-10T01:33:30.584Z,21.40
2022-11-10T01:36:17.080Z,21.40
2022-11-10T01:39:04.833Z,21.40
2022-11-10T01:41:51.193Z,21.40
2022-11-10T01:44:37.651Z,21.40
2022-11-10T01:47:23.975Z,21.40
2022-11-10T01:50:10.470Z,21.40
2022-11-10T01:52:58.113Z,21.40
2022-11-10T01:55:45.959Z,21.40
2022-11-10T01:58:33.857Z,21.40
2022-11-10T02:01:20.144Z,21.40
2022-11-10T02:04:07.489Z,21.40
2022-11-10T02:06:53.962Z,21.40
2022-11-10T02:09:40.373Z,21.40
2022-11-10T02:12:37.641Z,21.40
2022-11-10T02:15:23.770Z,21.40
2022-11-10T02:18:10.190Z,21.40
2022-11-10T02:20:58.083Z,21.40
2022-11-10T02:23:45.725Z,21.30
2022-11-10T02:26:32.216Z,21.30
2022-11-10T02:29:18.741Z,21.30
2022-11-10T02:32:05.415Z,21.30
2022-11-10T02:34:51.522Z,21.30
2022-11-10T02:37:39.288Z,21.30
2022-11-10T02:40:25.700Z,21.30
2022-11-10T02:43:13.188Z,21.30
2022-11-10T02:45:59.665Z,21.30
2022-11-10T02:48:46.178Z,21.30
2022-11-10T02:51:32.382Z,21.30
2022-11-10T02:54:20.053Z,21.30
2022-11-10T02:57:06.523Z,21.30
2022-11-10T02:59:52.902Z,21.30
2022-11-10T03:02:39.087Z,21.30
2022-11-10T03:05:25.617Z,21.30
2022-11-10T03:08:12.021Z,21.30
2022-11-10T03:10:59.876Z,21.30
2022-11-10T03:14:00.935Z,21.30
2022-11-10T03:16:47.881Z,21.30
2022-11-10T03:19:34.336Z,21.20
2022-11-10T03:22:20.746Z,21.20
2022-11-10T03:25:07.643Z,21.30
2022-11-10T03:27:55.404Z,21.30
2022-11-10T03:30:42.628Z,21.30
2022-11-10T03:33:28.740Z,21.20
2022-11-10T03:36:15.167Z,21.20
2022-11-10T03:39:01.853Z,21.20
2022-11-10T03:41:47.922Z,21.20
2022-11-10T03:44:35.527Z,21.20
2022-11-10T03:47:22.097Z,21.20
2022-11-10T03:50:08.970Z,21.20
2022-11-10T03:52:55.243Z,21.20
2022-11-10T03:55:41.654Z,21.20
2022-11-10T03:58:28.044Z,21.20
2022-11-10T04:01:15.765Z,21.20
2022-11-10T04:04:02.255Z,21.20
2022-11-10T04:07:08.300Z,21.20
2022-11-10T04:09:54.563Z,21.20
2022-11-10T04:12:58.044Z,21.20
2022-11-10T04:15:44.600Z,21.20
2022-11-10T04:18:32.042Z,21.20
2022-11-10T04:21:18.187Z,21.20
2022-11-10T04:24:04.951Z,21.20
2022-11-10T04:26:51.082Z,21.20
2022-11-10T04:29:37.474Z,21.20
2022-11-10T04:32:23.834Z,21.10
2022-11-10T04:35:11.783Z,21.10
2022-11-10T04:37:57.922Z,21.20
2022-11-10T04:40:44.394Z,21.10
2022-11-10T04:43:31.030Z,21.10
2022-11-10T04:46:21.919Z,21.10
2022-11-10T04:49:08.245Z,21.20
2022-11-10T04:51:55.973Z,21.10
2022-11-10T04:54:42.890Z,21.10
2022-11-10T04:57:29.262Z,21.20
2022-11-10T05:00:18.769Z,21.10
2022-11-10T05:03:06.639Z,21.10
2022-11-10T05:05:52.875Z,21.20
2022-11-10T05:08:42.101Z,21.10
2022-11-10T05:11:28.346Z,21.10
2022-11-10T05:14:14.796Z,21.10
2022-11-10T05:17:01.118Z,21.10
2022-11-10T05:19:48.034Z,21.10
2022-11-10T05:22:34.605Z,21.10
2022-11-10T05:25:22.154Z,21.10
2022-11-10T05:28:09.805Z,21.10
2022-11-10T05:30:56.170Z,21.10
2022-11-10T05:33:42.783Z,21.10
2022-11-10T05:36:29.289Z,21.10
2022-11-10T05:39:15.658Z,21.10
2022-11-10T05:42:03.431Z,21.10
2022-11-10T05:44:49.935Z,21.10
2022-11-10T05:47:37.199Z,21.10
2022-11-10T05:50:23.647Z,21.10
2022-11-10T05:53:09.811Z,21.10
2022-11-10T05:55:56.113Z,21.10
2022-11-10T05:58:43.762Z,21.10
2022-11-10T06:01:30.139Z,21.10
2022-11-10T06:04:16.418Z,21.10
2022-11-10T06:07:02.799Z,21.10
2022-11-10T06:09:49.236Z,21.10
2022-11-10T06:12:35.777Z,21.10
2022-11-10T06:15:23.834Z,21.10
2022-11-10T06:18:10.220Z,21.10
2022-11-10T06:20:56.561Z,21.10
2022-11-10T06:23:42.861Z,21.10
2022-11-10T06:26:29.178Z,21.10
2022-11-10T06:29:15.484Z,21.10
2022-11-10T06:32:03.163Z,21.10
2022-11-10T06:34:50.293Z,21.10
2022-11-10T06:37:38.618Z,21.00
2022-11-10T06:40:24.724Z,21.10
2022-11-10T06:43:11.260Z,21.10
2022-11-10T06:45:57.983Z,21.00
2022-11-10T06:48:45.488Z,21.10
2022-11-10T06:51:32.455Z,21.00
2022-11-10T06:54:18.958Z,21.00
2022-11-10T06:57:05.495Z,21.10
2022-11-10T06:59:51.932Z,21.10
2022-11-10T07:02:38.447Z,21.10
2022-11-10T07:05:26.207Z,21.10
2022-11-10T07:08:13.648Z,21.10
2022-11-10T07:11:00.132Z,21.10
2022-11-10T07:13:46.603Z,21.10
2022-11-10T07:16:33.196Z,21.10
2022-11-10T07:19:19.762Z,21.10
2022-11-10T07:22:11.028Z,21.10
2022-11-10T07:24:57.641Z,21.10
2022-11-10T07:27:43.819Z,21.10
2022-11-10T07:30:30.558Z,21.10
2022-11-10T07:33:16.996Z,21.00
2022-11-10T07:36:04.270Z,21.00
2022-11-10T07:38:51.749Z,21.10
2022-11-10T07:41:38.129Z,21.10
2022-11-10T07:44:24.403Z,21.10
2022-11-10T07:47:10.825Z,21.10
2022-11-10T07:49:57.146Z,21.10
2022-11-10T07:52:43.597Z,21.10
2022-11-10T07:55:31.180Z,21.10
2022-11-10T07:58:18.352Z,21.10
2022-11-10T08:01:04.590Z,21.10
2022-11-10T08:03:51.060Z,21.10
2022-11-10T08:06:37.514Z,21.10
2022-11-10T08:09:23.906Z,21.10
2022-11-10T08:12:11.515Z,21.10
2022-11-10T08:14:57.973Z,21.10
2022-11-10T08:17:44.448Z,21.10
2022-11-10T08:20:31.132Z,21.10
2022-11-10T08:23:17.765Z,21.10
2022-11-10T08:26:04.080Z,21.20
2022-11-10T08:28:51.928Z,21.10
2022-11-10T08:31:38.756Z,21.20
2022-11-10T08:34:25.050Z,21.20
2022-11-10T08:37:11.461Z,21.10
2022-11-10T08:39:58.001Z,21.20
2022-11-10T08:42:44.393Z,21.10
2022-11-10T08:45:32.353Z,21.20
2022-11-10T08:48:19.591Z,21.10
2022-11-10T08:51:05.974Z,21.10
2022-11-10T08:53:52.444Z,21.10
2022-11-10T08:56:38.771Z,21.10
2022-11-10T08:59:25.500Z,21.10
2022-11-10T09:02:12.987Z,21.10
2022-11-10T09:04:59.457Z,21.10
2022-11-10T09:07:48.804Z,21.10
2022-11-10T09:10:36.224Z,21.10
2022-11-10T09:13:28.964Z,21.10
2022-11-10T09:16:16.758Z,21.10
2022-11-10T09:19:04.659Z,21.10
2022-11-10T09:21:51.074Z,21.10
2022-11-10T09:24:37.451Z,21.10
2022-11-10T09:27:23.895Z,21.10
2022-11-10T09:30:17.251Z,21.10
2022-11-10T09:33:04.095Z,21.10
2022-11-10T09:35:52.209Z,21.10
2022-11-10T09:38:39.229Z,21.20
2022-11-10T09:41:26.599Z,21.20
2022-11-10T09:44:15.887Z,21.20
2022-11-10T09:47:04.746Z,21.20
2022-11-10T09:49:52.275Z,21.20
2022-11-10T09:52:39.684Z,21.20
2022-11-10T09:55:30.720Z,21.20
2022-11-10T09:58:18.254Z,21.20
2022-11-10T10:01:14.659Z,21.20
2022-11-10T10:04:06.285Z,21.20
2022-11-10T10:07:09.989Z,21.20
2022-11-10T10:10:01.873Z,21.10
2022-11-10T10:12:56.422Z,21.10
2022-11-10T10:15:45.340Z,21.10
2022-11-10T10:18:35.202Z,21.10
2022-11-10T10:21:33.108Z,21.20
2022-11-10T10:24:22.288Z,21.20
2022-11-10T10:27:20.805Z,21.10
2022-11-10T10:30:13.690Z,21.20
2022-11-10T10:33:04.087Z,21.20
2022-11-10T10:35:50.987Z,21.20
2022-11-10T10:38:38.749Z,21.20
2022-11-10T10:41:25.908Z,21.20
2022-11-10T10:44:14.778Z,21.20
2022-11-10T10:47:02.841Z,21.20
2022-11-10T10:49:49.370Z,21.20
2022-11-10T10:52:35.786Z,21.20
2022-11-10T10:55:22.322Z,21.20
2022-11-10T10:58:20.701Z,21.20
2022-11-10T11:01:22.903Z,21.30
2022-11-10T11:04:29.851Z,21.20
2022-11-10T11:07:21.523Z,21.20
2022-11-10T11:10:19.181Z,21.20
2022-11-10T11:13:23.923Z,21.30
2022-11-10T11:16:12.511Z,21.20
2022-11-10T11:18:59.187Z,21.20
2022-11-10T11:21:53.915Z,21.20
2022-11-10T11:24:42.708Z,21.20
2022-11-10T11:27:34.035Z,21.20
2022-11-10T11:30:21.097Z,21.20
2022-11-10T11:33:29.694Z,21.20
2022-11-10T11:36:23.517Z,21.20
2022-11-10T11:39:17.432Z,21.20
2022-11-10T11:42:08.890Z,21.20
2022-11-10T11:45:02.681Z,21.20
2022-11-10T11:47:58.958Z,21.20
2022-11-10T11:50:50.933Z,21.20
2022-11-10T11:53:43.808Z,21.20
2022-11-10T11:56:31.636Z,21.20
2022-11-10T11:59:28.943Z,21.20
2022-11-10T12:02:39.667Z,21.20
2022-11-10T12:05:38.254Z,21.10
2022-11-10T12:08:30.723Z,21.20
2022-11-10T12:11:19.938Z,21.20
2022-11-10T12:14:09.272Z,21.20
2022-11-10T12:16:58.774Z,21.30
2022-11-10T12:19:47.696Z,21.20
2022-11-10T12:22:37.148Z,21.20
2022-11-10T12:25:27.315Z,21.20
2022-11-10T12:28:16.649Z,21.20
2022-11-10T12:31:04.409Z,21.20
2022-11-10T12:33:51.828Z,21.30
2022-11-10T12:36:38.272Z,21.30
2022-11-10T12:39:25.411Z,21.30
2022-11-10T12:42:15.840Z,21.30
2022-11-10T12:45:03.021Z,21.40
2022-11-10T12:47:49.289Z,21.40
2022-11-10T12:50:43.381Z,21.40
2022-11-10T12:53:31.463Z,21.50
2022-11-10T12:56:19.652Z,21.50
2022-11-10T12:59:16.942Z,21.50
2022-11-10T13:02:04.488Z,21.40
2022-11-10T13:05:22.027Z,21.40
2022-11-10T13:08:21.225Z,21.40
2022-11-10T13:11:19.863Z,21.40
2022-11-10T13:14:22.153Z,21.50
2022-11-10T13:17:09.206Z,21.50
2022-11-10T13:19:55.907Z,21.50
2022-11-10T13:22:43.404Z,21.50
2022-11-10T13:25:43.187Z,21.60
2022-11-10T13:28:58.427Z,21.50
2022-11-10T13:31:56.795Z,21.50
2022-11-10T13:34:43.034Z,21.50
2022-11-10T13:37:50.668Z,21.40
2022-11-10T13:40:39.361Z,21.50
2022-11-10T13:43:27.393Z,21.50
2022-11-10T13:46:13.543Z,21.50
2022-11-10T13:49:24.377Z,21.50
2022-11-10T13:52:14.318Z,21.60
2022-11-10T13:55:23.899Z,21.60
2022-11-10T13:58:11.154Z,21.60
2022-11-10T14:01:23.649Z,21.60
2022-11-10T14:04:11.375Z,21.70
2022-11-10T14:06:57.645Z,21.70
2022-11-10T14:09:45.001Z,21.70
2022-11-10T14:12:32.241Z,21.60
2022-11-10T14:15:19.795Z,21.70
2022-11-10T14:18:15.686Z,21.70
2022-11-10T14:21:03.329Z,21.70
2022-11-10T14:23:51.396Z,21.80
2022-11-10T14:26:40.186Z,21.80
2022-11-10T14:29:29.035Z,21.60
2022-11-10T14:32:17.567Z,21.70
2022-11-10T14:35:04.262Z,21.80
2022-11-10T14:37:52.381Z,21.70
2022-11-10T14:40:42.005Z,21.60
2022-11-10T14:43:28.841Z,21.70
2022-11-10T14:46:15.688Z,21.80
2022-11-10T14:49:02.377Z,21.80
2022-11-10T14:51:48.555Z,21.80
2022-11-10T14:54:36.973Z,21.80
2022-11-10T14:57:23.285Z,21.80
2022-11-10T15:00:13.330Z,21.80
2022-11-10T15:03:00.188Z,21.80
2022-11-10T15:05:46.895Z,21.90
2022-11-10T15:08:33.468Z,21.90
2022-11-10T15:11:38.879Z,21.90
2022-11-10T15:14:39.435Z,21.90
2022-11-10T15:17:44.279Z,21.90
2022-11-10T15:20:35.170Z,21.90
2022-11-10T15:23:23.294Z,21.90
2022-11-10T15:26:19.329Z,21.90
2022-11-10T15:29:06.986Z,22.00
2022-11-10T15:31:53.476Z,22.00
2022-11-10T15:34:42.186Z,22.00
2022-11-10T15:37:31.085Z,22.00
2022-11-10T15:40:35.581Z,22.00
2022-11-10T15:43:28.302Z,22.00
2022-11-10T15:46:18.437Z,22.10
2022-11-10T15:49:05.266Z,22.10
2022-11-10T15:51:52.155Z,22.10
2022-11-10T15:54:38.600Z,22.20
2022-11-10T15:57:24.918Z,22.20
2022-11-10T16:00:13.342Z,22.20
2022-11-10T16:03:01.242Z,22.20
2022-11-10T16:05:48.367Z,22.20
2022-11-10T16:08:35.395Z,22.20
2022-11-10T16:11:22.246Z,22.20
2022-11-10T16:14:11.752Z,22.30
2022-11-10T16:16:57.804Z,22.30
2022-11-10T16:19:46.568Z,22.20
2022-11-10T16:22:33.066Z,22.20
2022-11-10T16:25:25.162Z,22.20
2022-11-10T16:28:13.905Z,22.20
2022-11-10T16:31:00.130Z,22.30
2022-11-10T16:33:46.961Z,22.20
2022-11-10T16:36:34.529Z,22.30
2022-11-10T16:39:20.887Z,22.20
2022-11-10T16:42:07.021Z,22.20
2022-11-10T16:44:53.526Z,22.10
2022-11-10T16:47:39.534Z,22.20
2022-11-10T16:50:30.352Z,22.20
2022-11-10T16:53:19.254Z,22.10
2022-11-10T16:56:05.845Z,22.00
2022-11-10T16:58:52.043Z,22.10
2022-11-10T17:01:38.523Z,22.10
2022-11-10T17:04:24.607Z,22.10
2022-11-10T17:07:11.964Z,22.20
2022-11-10T17:09:59.992Z,22.20
2022-11-10T17:12:46.429Z,22.20
2022-11-10T17:15:35.292Z,22.30
2022-11-10T17:18:23.890Z,22.20
2022-11-10T17:21:11.554Z,22.20
2022-11-10T17:23:58.204Z,22.20
2022-11-10T17:26:45.690Z,22.20
2022-11-10T17:29:32.108Z,22.20
2022-11-10T17:32:24.239Z,22.20
2022-11-10T17:35:18.175Z,22.20
2022-11-10T17:38:04.748Z,22.10
2022-11-10T17:40:51.179Z,22.20
2022-11-10T17:43:44.332Z,22.20
2022-11-10T17:46:31.707Z,22.20
2022-11-10T17:49:18.108Z,22.20
2022-11-10T17:52:05.009Z,22.30
2022-11-10T17:54:51.428Z,22.30
2022-11-10T17:57:37.751Z,22.30
2022-11-10T18:00:26.060Z,22.30
2022-11-10T18:03:14.242Z,22.30
2022-11-10T18:06:01.030Z,22.30
2022-11-10T18:08:47.183Z,22.30
2022-11-10T18:11:33.533Z,22.30
2022-11-10T18:14:19.881Z,22.40
2022-11-10T18:17:07.579Z,22.30
2022-11-10T18:19:53.779Z,22.40
2022-11-10T18:22:40.157Z,22.40
2022-11-10T18:25:26.527Z,22.40
2022-11-10T18:28:14.300Z,22.30
2022-11-10T18:31:06.289Z,22.30
2022-11-10T18:33:55.665Z,22.40
2022-11-10T18:36:41.966Z,22.30
2022-11-10T18:39:28.495Z,22.40
2022-11-10T18:42:14.818Z,22.40
2022-11-10T18:45:01.250Z,22.40
2022-11-10T18:47:47.683Z,22.40
2022-11-10T18:50:38.148Z,22.40
2022-11-10T18:53:24.651Z,22.40
2022-11-10T18:56:11.240Z,22.40
2022-11-10T18:58:57.494Z,22.40
2022-11-10T19:01:44.104Z,22.40
2022-11-10T19:04:30.244Z,22.50
2022-11-10T19:07:17.910Z,22.50
2022-11-10T19:10:04.819Z,22.50
2022-11-10T19:12:51.171Z,22.50
2022-11-10T19:15:40.830Z,22.40
2022-11-10T19:18:26.896Z,22.50
2022-11-10T19:21:14.263Z,22.40
2022-11-10T19:24:01.903Z,22.40
2022-11-10T19:26:50.466Z,22.40
2022-11-10T19:29:36.800Z,22.40
2022-11-10T19:32:25.021Z,22.40
2022-11-10T19:35:13.212Z,22.40
2022-11-10T19:37:59.352Z,22.50
2022-11-10T19:40:47.026Z,22.40
2022-11-10T19:43:33.538Z,22.40
2022-11-10T19:46:20.720Z,22.40
2022-11-10T19:49:06.918Z,22.50
2022-11-10T19:51:53.515Z,22.40
2022-11-10T19:54:39.775Z,22.40
2022-11-10T19:57:27.900Z,22.40
2022-11-10T20:00:16.676Z,22.40
2022-11-10T20:03:02.726Z,22.50
2022-11-10T20:05:49.045Z,22.40
2022-11-10T20:08:35.606Z,22.40
2022-11-10T20:11:23.045Z,22.40
2022-11-10T20:14:10.778Z,22.40
2022-11-10T20:16:57.055Z,22.50
2022-11-10T20:19:43.433Z,22.40
2022-11-10T20:22:29.879Z,22.40
2022-11-10T20:25:16.384Z,22.50
2022-11-10T20:28:03.438Z,22.50
2022-11-10T20:30:51.254Z,22.50
2022-11-10T20:33:37.823Z,22.50
2022-11-10T20:36:25.886Z,22.40
2022-11-10T20:39:11.966Z,22.40
2022-11-10T20:41:58.325Z,22.40
2022-11-10T20:44:44.755Z,22.30
2022-11-10T20:47:32.616Z,22.40
2022-11-10T20:50:23.992Z,22.30
2022-11-10T20:53:10.578Z,22.30
2022-11-10T20:55:58.719Z,22.30
2022-11-10T20:58:45.517Z,22.20
2022-11-10T21:01:32.440Z,22.20
2022-11-10T21:04:20.325Z,22.20
2022-11-10T21:07:06.685Z,22.20
2022-11-10T21:09:52.900Z,22.20
2022-11-10T21:12:51.614Z,22.20
2022-11-10T21:15:38.587Z,22.10
2022-11-10T21:18:25.260Z,22.20
2022-11-10T21:21:20.313Z,22.10
2022-11-10T21:24:07.265Z,22.20
2022-11-10T21:26:53.724Z,22.10
2022-11-10T21:29:42.163Z,22.10
2022-11-10T21:32:28.669Z,22.10
2022-11-10T21:35:14.957Z,22.10
2022-11-10T21:38:02.772Z,22.10
2022-11-10T21:40:49.194Z,22.10
2022-11-10T21:43:38.561Z,22.10
2022-11-10T21:46:25.141Z,22.20
2022-11-10T21:49:11.478Z,22.20
2022-11-10T21:51:58.089Z,22.20
2022-11-10T21:54:45.784Z,22.10
2022-11-10T21:57:32.149Z,22.20
2022-11-10T22:00:18.702Z,22.20
2022-11-10T22:03:05.612Z,22.30
2022-11-10T22:05:52.045Z,22.30
2022-11-10T22:08:39.143Z,22.20
2022-11-10T22:11:44.191Z,22.30
2022-11-10T22:14:48.067Z,22.30
2022-11-10T22:18:06.705Z,22.30
2022-11-10T22:20:53.376Z,22.30
2022-11-10T22:23:57.228Z,22.30
2022-11-10T22:26:44.805Z,22.30
2022-11-10T22:29:32.245Z,22.30
2022-11-10T22:32:18.722Z,22.30
2022-11-10T22:35:05.637Z,22.30
2022-11-10T22:37:52.475Z,22.40
2022-11-10T22:40:55.943Z,22.40
2022-11-10T22:44:01.155Z,22.40
2022-11-10T22:46:48.230Z,22.40
2022-11-10T22:49:34.787Z,22.40
2022-11-10T22:52:21.274Z,22.40
2022-11-10T22:55:07.946Z,22.40
2022-11-10T22:57:54.828Z,22.40
2022-11-10T23:00:42.683Z,22.50
2022-11-10T23:03:28.963Z,22.50
2022-11-10T23:06:15.513Z,22.50
2022-11-10T23:09:02.097Z,22.50
2022-11-10T23:11:48.587Z,22.50
2022-11-10T23:14:35.006Z,22.50
2022-11-10T23:17:23.019Z,22.60
2022-11-10T23:20:10.839Z,22.60
2022-11-10T23:22:57.142Z,22.60
2022-11-10T23:25:43.645Z,22.60
2022-11-10T23:28:30.493Z,22.60
2022-11-10T23:31:17.859Z,22.60
2022-11-10T23:34:05.698Z,22.70
2022-11-10T23:36:52.207Z,22.70
2022-11-10T23:39:38.577Z,22.70
2022-11-10T23:42:25.315Z,22.70
2022-11-10T23:45:11.986Z,22.80
2022-11-10T23:48:01.881Z,22.80
2022-11-10T23:50:51.945Z,22.80
2022-11-10T23:53:38.436Z,22.90
2022-11-10T23:56:25.112Z,22.80
2022-11-10T23:59:11.216Z,22.90
